Time;durP1;ratioP1;P1;durP2;ratioP2;P2;SDS_P1;SDS_P2;PMS_P1;PMS_P2;Temp;Humidity;BMP_temperature;BMP_pressure;BME280_temperature;BME280_humidity;BME280_pressure;Samples;Min_cycle;Max_cycle;Signal;HPM_P1;HPM_P2
2021/08/17 00:00:36;;;;;;;14.02;5.80;;;13.40;99.90;;;;;;4971442;28;20399;-66
2021/08/17 00:03:01;;;;;;;15.40;6.10;;;13.40;99.90;;;;;;4972159;28;20408;-66
2021/08/17 00:05:27;;;;;;;12.98;5.88;;;13.30;99.90;;;;;;4971542;28;20395;-66
2021/08/17 00:07:53;;;;;;;14.20;6.20;;;13.30;99.90;;;;;;4972198;28;20772;-66
2021/08/17 00:10:18;;;;;;;12.80;5.57;;;13.30;99.90;;;;;;4971859;28;20732;-62
2021/08/17 00:12:44;;;;;;;12.73;5.40;;;13.20;99.90;;;;;;4971659;28;20400;-66
2021/08/17 00:15:10;;;;;;;13.55;6.20;;;13.20;99.90;;;;;;4972070;28;20384;-66
2021/08/17 00:17:36;;;;;;;14.23;6.25;;;13.30;99.90;;;;;;4971449;28;20400;-66
2021/08/17 00:20:03;;;;;;;12.20;5.20;;;13.30;99.90;;;;;;4971909;28;20388;-66
2021/08/17 00:22:29;;;;;;;16.30;6.07;;;13.30;99.90;;;;;;4970861;28;20462;-66
2021/08/17 00:24:55;;;;;;;14.50;6.30;;;13.30;99.90;;;;;;4971948;28;20388;-66
2021/08/17 00:27:20;;;;;;;14.77;6.65;;;13.40;99.90;;;;;;4971195;28;20428;-62
2021/08/17 00:29:47;;;;;;;14.60;6.10;;;13.40;99.90;;;;;;4971214;28;20419;-66
2021/08/17 00:32:13;;;;;;;13.53;6.03;;;13.40;99.90;;;;;;4971673;28;20384;-66
2021/08/17 00:34:39;;;;;;;15.82;6.45;;;13.30;99.90;;;;;;4970850;28;20871;-66
2021/08/17 00:37:04;;;;;;;14.70;6.70;;;13.30;99.90;;;;;;4971409;28;20384;-66
2021/08/17 00:39:31;;;;;;;16.50;7.35;;;13.30;99.90;;;;;;4970800;28;20396;-66
2021/08/17 00:41:58;;;;;;;12.80;6.50;;;13.20;99.90;;;;;;4970781;28;20403;-66
2021/08/17 00:44:26;;;;;;;14.70;5.95;;;13.20;99.90;;;;;;4970620;28;20891;-64
2021/08/17 00:46:58;;;;;;;14.03;6.40;;;13.20;99.90;;;;;;4971544;28;20400;-66
2021/08/17 00:49:24;;;;;;;14.00;5.78;;;13.20;99.90;;;;;;4970549;28;20479;-61
2021/08/17 00:51:54;;;;;;;14.97;6.70;;;13.20;99.90;;;;;;4975844;28;20425;-66
2021/08/17 00:54:23;;;;;;;13.40;6.03;;;13.20;99.90;;;;;;4983691;28;20874;-61
2021/08/17 00:56:49;;;;;;;12.48;5.70;;;13.30;99.90;;;;;;4973120;28;20399;-66
2021/08/17 00:59:16;;;;;;;11.63;5.80;;;13.30;99.90;;;;;;4989174;28;20378;-66
2021/08/17 01:01:41;;;;;;;12.25;5.68;;;13.30;99.90;;;;;;4989915;28;20478;-66
2021/08/17 01:04:10;;;;;;;11.27;5.10;;;13.20;99.90;;;;;;4990646;28;20810;-66
2021/08/17 01:06:37;;;;;;;13.48;6.10;;;13.20;99.90;;;;;;4989836;28;20386;-65
2021/08/17 01:09:04;;;;;;;12.02;6.10;;;13.10;99.90;;;;;;4990603;28;20386;-66
2021/08/17 01:11:30;;;;;;;13.40;6.00;;;13.00;99.90;;;;;;4990233;28;20411;-66
2021/08/17 01:13:56;;;;;;;13.48;5.45;;;12.90;99.90;;;;;;4990556;28;20381;-66
2021/08/17 01:16:22;;;;;;;12.50;5.60;;;12.80;99.90;;;;;;4990263;28;20867;-62
2021/08/17 01:18:50;;;;;;;13.55;6.43;;;12.80;99.90;;;;;;4990016;28;20449;-66
2021/08/17 01:21:16;;;;;;;12.57;5.65;;;12.70;99.90;;;;;;4990169;28;20375;-66
2021/08/17 01:23:43;;;;;;;14.63;5.82;;;12.70;99.90;;;;;;4989800;28;20398;-66
2021/08/17 01:26:09;;;;;;;13.10;6.20;;;12.60;99.90;;;;;;4990546;28;20390;-66
2021/08/17 01:28:34;;;;;;;13.10;5.80;;;12.50;99.90;;;;;;4989795;28;20387;-66
2021/08/17 01:31:07;;;;;;;12.77;5.63;;;12.60;99.90;;;;;;4990488;28;20401;-66
2021/08/17 01:33:34;;;;;;;12.55;5.70;;;12.50;99.90;;;;;;4989665;28;20378;-68
2021/08/17 01:36:02;;;;;;;11.68;5.50;;;12.50;99.90;;;;;;4990213;28;20463;-66
2021/08/17 01:38:29;;;;;;;15.20;5.90;;;12.50;99.90;;;;;;4989420;28;20433;-65
2021/08/17 01:40:54;;;;;;;17.52;6.40;;;12.50;99.90;;;;;;4990319;28;20415;-65
2021/08/17 01:43:21;;;;;;;14.05;5.50;;;12.50;99.90;;;;;;4990105;28;20524;-66
2021/08/17 01:45:57;;;;;;;13.20;5.35;;;12.40;99.90;;;;;;4971931;28;21255;-66
2021/08/17 01:48:30;;;;;;;13.20;5.68;;;12.40;99.90;;;;;;4990385;28;20467;-62
2021/08/17 01:50:56;;;;;;;12.00;5.25;;;12.30;99.90;;;;;;4989913;28;20407;-66
2021/08/17 01:53:32;;;;;;;14.90;6.00;;;12.20;99.90;;;;;;4991757;28;20390;-66
2021/08/17 01:56:09;;;;;;;13.40;5.63;;;12.20;99.90;;;;;;4994211;28;20462;-66
2021/08/17 01:58:35;;;;;;;12.60;5.97;;;12.20;99.90;;;;;;4993006;28;20893;-66
2021/08/17 02:01:05;;;;;;;13.38;6.13;;;12.20;99.90;;;;;;4994058;28;20379;-66
2021/08/17 02:03:31;;;;;;;13.52;5.72;;;12.30;99.90;;;;;;4975580;28;20905;-66
2021/08/17 02:05:57;;;;;;;15.77;6.27;;;12.30;99.90;;;;;;4993967;28;20437;-66
2021/08/17 02:08:23;;;;;;;16.33;6.47;;;12.40;99.90;;;;;;4993647;28;20905;-66
2021/08/17 02:10:48;;;;;;;13.10;5.90;;;12.30;99.90;;;;;;4992811;28;20422;-66
2021/08/17 02:13:16;;;;;;;12.52;5.72;;;12.30;99.90;;;;;;4993830;28;20386;-66
2021/08/17 02:15:43;;;;;;;13.40;5.75;;;12.30;99.90;;;;;;4975447;28;20763;-66
2021/08/17 02:18:09;;;;;;;13.00;5.53;;;12.30;99.90;;;;;;4993382;28;20395;-66
2021/08/17 02:20:34;;;;;;;14.10;6.20;;;12.30;99.90;;;;;;4993042;28;20398;-66
2021/08/17 02:23:00;;;;;;;12.82;5.57;;;12.30;99.90;;;;;;4993636;28;20409;-65
2021/08/17 02:25:26;;;;;;;12.17;6.10;;;12.30;99.90;;;;;;4993220;28;20390;-62
2021/08/17 02:27:51;;;;;;;13.27;5.47;;;12.20;99.90;;;;;;4992846;28;20387;-66
2021/08/17 02:30:17;;;;;;;13.50;5.90;;;12.10;99.90;;;;;;4993589;28;20394;-66
2021/08/17 02:32:43;;;;;;;11.20;5.30;;;12.00;99.90;;;;;;4992426;28;20406;-66
2021/08/17 02:35:08;;;;;;;14.15;6.00;;;12.00;99.90;;;;;;4993495;28;20395;-66
2021/08/17 02:37:34;;;;;;;14.23;5.90;;;10.90;99.90;;;;;;4992783;28;20715;-65
2021/08/17 02:40:00;;;;;;;11.60;5.80;;;12.00;99.90;;;;;;4993485;28;20390;-66
2021/08/17 02:42:27;;;;;;;12.18;5.30;;;12.00;99.90;;;;;;4993062;28;20425;-62
2021/08/17 02:44:52;;;;;;;14.15;6.13;;;12.00;99.90;;;;;;4993137;28;20378;-66
2021/08/17 02:47:18;;;;;;;15.70;5.90;;;12.00;99.90;;;;;;4993232;28;20409;-66
2021/08/17 02:49:43;;;;;;;13.30;5.70;;;12.10;99.90;;;;;;4974676;28;20870;-66
2021/08/17 02:52:09;;;;;;;14.18;5.60;;;12.00;99.90;;;;;;4985942;28;20419;-66
2021/08/17 02:54:37;;;;;;;12.57;5.67;;;12.00;99.90;;;;;;4956672;28;20400;-66
2021/08/17 02:57:04;;;;;;;13.50;5.70;;;11.90;99.90;;;;;;4973643;28;20475;-66
2021/08/17 02:59:30;;;;;;;15.48;6.68;;;11.90;99.90;;;;;;4973292;28;20456;-62
2021/08/17 03:01:56;;;;;;;14.85;6.10;;;11.80;99.90;;;;;;4973071;28;20435;-66
2021/08/17 03:04:22;;;;;;;12.90;6.00;;;11.80;99.90;;;;;;4972563;28;20768;-66
2021/08/17 03:06:48;;;;;;;11.70;5.65;;;11.80;99.90;;;;;;4972727;28;20864;-65
2021/08/17 03:09:13;;;;;;;12.50;5.73;;;11.70;99.90;;;;;;4973229;28;20876;-66
2021/08/17 03:11:39;;;;;;;14.48;5.80;;;11.60;99.90;;;;;;4972555;28;20396;-65
2021/08/17 03:14:05;;;;;;;11.20;5.87;;;11.50;99.90;;;;;;4973327;28;20388;-66
2021/08/17 03:16:31;;;;;;;12.60;5.55;;;11.50;99.90;;;;;;4972690;28;20412;-62
2021/08/17 03:18:57;;;;;;;13.13;6.45;;;11.60;99.90;;;;;;4972995;28;20401;-66
2021/08/17 03:21:24;;;;;;;13.32;6.65;;;11.60;99.90;;;;;;4973171;28;20906;-65
2021/08/17 03:23:50;;;;;;;12.43;5.50;;;11.60;99.90;;;;;;4972522;28;20384;-65
2021/08/17 03:26:16;;;;;;;13.48;5.95;;;11.60;99.90;;;;;;4973219;28;20916;-66
2021/08/17 03:28:41;;;;;;;12.87;6.30;;;11.50;99.90;;;;;;4972123;28;20384;-65
2021/08/17 03:31:07;;;;;;;16.25;6.15;;;11.40;99.90;;;;;;4955681;28;20402;-65
2021/08/17 03:33:33;;;;;;;14.10;5.95;;;11.30;99.90;;;;;;4971946;28;20932;-62
2021/08/17 03:35:59;;;;;;;14.43;6.17;;;11.20;99.90;;;;;;4955651;28;20400;-65
2021/08/17 03:38:25;;;;;;;14.20;6.10;;;11.20;99.90;;;;;;4955702;28;20458;-66
2021/08/17 03:40:50;;;;;;;11.90;5.70;;;11.30;99.90;;;;;;4975281;28;20390;-65
2021/08/17 03:43:16;;;;;;;14.40;5.97;;;11.20;99.90;;;;;;4975628;28;20852;-65
2021/08/17 03:45:42;;;;;;;11.33;5.80;;;11.10;99.90;;;;;;4986940;28;20415;-66
2021/08/17 03:48:08;;;;;;;13.93;5.55;;;11.10;99.90;;;;;;4987801;28;20390;-65
2021/08/17 03:50:34;;;;;;;15.07;6.50;;;11.20;99.90;;;;;;4976137;28;20757;-62
2021/08/17 03:52:59;;;;;;;12.05;5.47;;;11.20;99.90;;;;;;4980660;28;20376;-66
2021/08/17 03:55:26;;;;;;;12.20;5.33;;;11.20;99.90;;;;;;4986628;28;20466;-65
2021/08/17 03:57:52;;;;;;;12.35;5.85;;;11.10;99.90;;;;;;4983657;28;20597;-66
2021/08/17 04:00:24;;;;;;;14.63;6.23;;;11.10;99.90;;;;;;4966236;28;20890;-63
2021/08/17 04:02:50;;;;;;;16.63;6.10;;;11.00;99.90;;;;;;4990767;28;20419;-65
2021/08/17 04:05:16;;;;;;;12.00;4.93;;;11.00;99.90;;;;;;4991775;28;20394;-65
2021/08/17 04:07:41;;;;;;;13.75;5.50;;;10.90;99.90;;;;;;4989882;28;20402;-65
2021/08/17 04:10:07;;;;;;;14.15;6.40;;;10.90;99.90;;;;;;4984645;28;20417;-65
2021/08/17 04:12:34;;;;;;;15.55;6.20;;;10.90;99.90;;;;;;4988470;28;20441;-61
2021/08/17 04:14:59;;;;;;;12.60;5.30;;;10.90;99.90;;;;;;4990783;28;20386;-65
2021/08/17 04:17:25;;;;;;;11.30;6.03;;;10.90;99.90;;;;;;4991231;28;20387;-65
2021/08/17 04:19:50;;;;;;;12.38;5.70;;;10.90;99.90;;;;;;4991040;28;20383;-65
2021/08/17 04:22:16;;;;;;;14.17;5.80;;;10.90;99.90;;;;;;4991042;28;20414;-65
2021/08/17 04:24:42;;;;;;;14.27;5.40;;;10.80;99.90;;;;;;4990652;28;21202;-65
2021/08/17 04:27:07;;;;;;;12.45;5.90;;;10.90;99.90;;;;;;4991095;28;20406;-65
2021/08/17 04:29:33;;;;;;;11.73;5.40;;;11.00;99.90;;;;;;4990851;28;20886;-61
2021/08/17 04:31:59;;;;;;;14.25;5.95;;;11.00;99.90;;;;;;4990680;28;20404;-65
2021/08/17 04:34:25;;;;;;;12.40;5.38;;;11.00;99.90;;;;;;4990902;28;20390;-64
2021/08/17 04:36:50;;;;;;;13.98;6.20;;;11.00;99.90;;;;;;4990058;28;20414;-65
2021/08/17 04:39:16;;;;;;;11.37;5.60;;;11.00;99.90;;;;;;4990990;28;20870;-65
2021/08/17 04:41:42;;;;;;;12.10;5.80;;;11.00;99.90;;;;;;4989527;28;20441;-65
2021/08/17 04:44:08;;;;;;;12.32;5.15;;;11.10;99.90;;;;;;4974106;28;20468;-65
2021/08/17 04:46:34;;;;;;;13.63;5.57;;;10.90;99.90;;;;;;4984052;28;20419;-61
2021/08/17 04:48:59;;;;;;;13.73;5.82;;;10.90;99.90;;;;;;4979063;28;20399;-67
2021/08/17 04:51:27;;;;;;;15.23;4.80;;;11.00;99.90;;;;;;4972316;28;20807;-65
2021/08/17 04:53:53;;;;;;;15.05;5.70;;;11.10;99.90;;;;;;4979400;28;20396;-64
2021/08/17 04:56:18;;;;;;;15.30;5.67;;;11.20;99.90;;;;;;4976707;28;20380;-65
2021/08/17 04:58:44;;;;;;;14.87;5.40;;;11.30;99.90;;;;;;4977604;28;20481;-64
2021/08/17 05:01:09;;;;;;;11.63;5.00;;;11.40;99.90;;;;;;4968211;28;20406;-65
2021/08/17 05:03:35;;;;;;;11.07;5.20;;;11.50;99.90;;;;;;4976909;28;20428;-61
2021/08/17 05:06:01;;;;;;;11.77;5.00;;;10.60;99.90;;;;;;4970860;28;20399;-64
2021/08/17 05:08:26;;;;;;;12.57;4.97;;;12.20;99.90;;;;;;4979166;28;20383;-65
2021/08/17 05:10:52;;;;;;;11.33;4.70;;;12.80;99.90;;;;;;4978390;28;20419;-65
2021/08/17 05:13:18;;;;;;;11.93;4.70;;;12.90;99.90;;;;;;4966677;28;20901;-63
2021/08/17 05:15:44;;;;;;;13.33;4.93;;;12.90;99.90;;;;;;4977814;28;20396;-65
2021/08/17 05:18:10;;;;;;;11.07;4.70;;;12.90;99.90;;;;;;4971251;28;20407;-65
2021/08/17 05:20:35;;;;;;;11.20;4.68;;;13.00;99.90;;;;;;4971012;28;20403;-62
2021/08/17 05:23:01;;;;;;;12.73;5.13;;;12.90;99.90;;;;;;4970438;28;20892;-66
2021/08/17 05:25:27;;;;;;;9.57;4.40;;;12.90;99.90;;;;;;4971022;28;20392;-65
2021/08/17 05:27:53;;;;;;;11.00;5.07;;;12.90;99.90;;;;;;4972373;28;20475;-65
2021/08/17 05:30:19;;;;;;;13.43;5.15;;;12.90;99.90;;;;;;4977606;28;20463;-65
2021/08/17 05:32:45;;;;;;;11.82;5.40;;;13.20;99.90;;;;;;4976601;28;20428;-65
2021/08/17 05:35:11;;;;;;;11.13;4.37;;;13.60;99.90;;;;;;4977735;28;20876;-63
2021/08/17 05:37:37;;;;;;;9.20;4.55;;;14.50;99.90;;;;;;4977113;28;20424;-59
2021/08/17 05:40:05;;;;;;;10.65;3.80;;;15.50;99.90;;;;;;4976689;28;20419;-65
2021/08/17 05:42:30;;;;;;;10.50;4.15;;;16.50;99.90;;;;;;4977266;28;20415;-66
2021/08/17 05:44:56;;;;;;;9.48;4.38;;;17.10;99.90;;;;;;4987388;28;20758;-66
2021/08/17 05:47:22;;;;;;;10.40;3.97;;;17.40;99.90;;;;;;4987154;28;20454;-65
2021/08/17 05:49:48;;;;;;;10.10;3.90;;;18.10;99.90;;;;;;4975105;28;20402;-65
2021/08/17 05:52:14;;;;;;;10.13;4.10;;;18.40;99.90;;;;;;4993517;28;20609;-64
2021/08/17 05:54:40;;;;;;;9.32;4.68;;;19.20;99.90;;;;;;4985777;28;20420;-61
2021/08/17 05:57:08;;;;;;;10.20;4.20;;;19.60;99.90;;;;;;4975792;28;20598;-65
2021/08/17 05:59:34;;;;;;;11.40;4.28;;;19.20;99.90;;;;;;4984340;28;20428;-65
2021/08/17 06:02:03;;;;;;;9.35;4.30;;;19.20;99.90;;;;;;4975779;28;21100;-65
2021/08/17 06:04:29;;;;;;;9.85;4.40;;;19.40;99.90;;;;;;4977121;28;20392;-65
2021/08/17 06:06:55;;;;;;;9.50;4.45;;;19.30;99.90;;;;;;4977186;28;20731;-66
2021/08/17 06:09:21;;;;;;;8.77;4.20;;;19.30;99.90;;;;;;4981649;28;20388;-65
2021/08/17 06:11:48;;;;;;;9.07;4.78;;;19.00;99.90;;;;;;4975761;28;20388;-65
2021/08/17 06:14:14;;;;;;;11.05;4.80;;;19.60;99.90;;;;;;4976646;28;20396;-65
2021/08/17 06:16:41;;;;;;;9.98;4.50;;;19.60;99.90;;;;;;4975044;28;20404;-60
2021/08/17 06:19:06;;;;;;;9.60;4.60;;;19.40;99.90;;;;;;4976221;28;20427;-65
2021/08/17 06:21:34;;;;;;;10.00;4.70;;;20.00;99.90;;;;;;4975919;28;20392;-66
2021/08/17 06:24:00;;;;;;;9.60;4.70;;;20.80;99.90;;;;;;4977158;28;20964;-63
2021/08/17 06:26:25;;;;;;;9.80;4.47;;;20.50;99.90;;;;;;4981230;28;20395;-63
2021/08/17 06:28:51;;;;;;;11.93;5.10;;;20.10;99.90;;;;;;4975362;28;20400;-65
2021/08/17 06:31:22;;;;;;;9.60;4.70;;;19.80;99.90;;;;;;4976642;28;20834;-65
2021/08/17 06:33:51;;;;;;;8.95;4.25;;;20.50;99.90;;;;;;4975863;28;20404;-65
2021/08/17 06:36:17;;;;;;;10.32;4.70;;;20.60;99.90;;;;;;4976123;28;20391;-65
2021/08/17 06:38:43;;;;;;;10.63;4.18;;;19.80;99.90;;;;;;4975212;28;20446;-61
2021/08/17 06:41:09;;;;;;;12.60;5.30;;;17.80;99.90;;;;;;4972510;28;20384;-66
2021/08/17 06:43:35;;;;;;;11.13;5.00;;;19.10;99.90;;;;;;4973245;28;20412;-66
2021/08/17 06:46:01;;;;;;;10.67;4.40;;;19.60;99.90;;;;;;4972518;28;20392;-66
2021/08/17 06:48:27;;;;;;;8.20;3.92;;;20.50;99.90;;;;;;4971954;28;20914;-66
2021/08/17 06:50:52;;;;;;;10.53;4.30;;;21.20;99.90;;;;;;4972165;28;20408;-66
2021/08/17 06:53:18;;;;;;;9.53;4.30;;;21.00;99.90;;;;;;4972913;28;20451;-64
2021/08/17 06:55:44;;;;;;;11.13;4.80;;;20.80;99.90;;;;;;4972761;28;20399;-61
2021/08/17 06:58:13;;;;;;;9.85;4.40;;;20.30;99.90;;;;;;4975290;28;20399;-66
2021/08/17 07:00:42;;;;;;;12.60;5.20;;;19.90;99.90;;;;;;4977325;28;20403;-66
2021/08/17 07:03:08;;;;;;;10.00;4.80;;;19.50;99.90;;;;;;4972389;28;20416;-66
2021/08/17 07:05:35;;;;;;;10.43;5.30;;;19.80;99.90;;;;;;4972735;28;20388;-64
2021/08/17 07:08:02;;;;;;;10.32;4.75;;;20.10;99.90;;;;;;4971742;28;20507;-68
2021/08/17 07:10:27;;;;;;;10.90;5.50;;;20.00;99.90;;;;;;4955696;28;20467;-66
2021/08/17 07:12:53;;;;;;;11.43;5.37;;;18.50;99.90;;;;;;4971866;28;20848;-66
2021/08/17 07:15:19;;;;;;;12.53;5.63;;;18.10;99.90;;;;;;4972598;28;20388;-65
2021/08/17 07:17:44;;;;;;;13.20;5.10;;;18.00;99.90;;;;;;4972065;28;20507;-60
2021/08/17 07:20:10;;;;;;;11.55;4.90;;;18.10;99.90;;;;;;4972537;28;20938;-66
2021/08/17 07:22:36;;;;;;;11.52;4.70;;;18.10;99.90;;;;;;4972278;28;20514;-67
2021/08/17 07:25:02;;;;;;;10.30;5.20;;;19.30;99.90;;;;;;4972101;28;20479;-66
2021/08/17 07:27:28;;;;;;;12.13;5.93;;;19.30;99.90;;;;;;4972522;28;20781;-67
2021/08/17 07:29:53;;;;;;;12.57;5.07;;;19.90;99.90;;;;;;4971376;28;20388;-67
2021/08/17 07:32:19;;;;;;;12.75;5.32;;;20.10;99.90;;;;;;4972125;28;20423;-66
2021/08/17 07:34:44;;;;;;;10.80;5.30;;;19.60;99.90;;;;;;4971930;28;20384;-61
2021/08/17 07:37:10;;;;;;;13.70;6.28;;;19.10;99.90;;;;;;4980160;28;21202;-66
2021/08/17 07:39:36;;;;;;;11.93;5.50;;;18.30;99.90;;;;;;4991496;28;20466;-66
2021/08/17 07:42:01;;;;;;;11.17;5.63;;;18.00;99.90;;;;;;4990781;28;20414;-66
2021/08/17 07:44:30;;;;;;;12.60;6.50;;;17.80;99.90;;;;;;4991539;28;20389;-65
2021/08/17 07:46:56;;;;;;;13.00;5.70;;;17.30;99.90;;;;;;4990900;28;20401;-64
2021/08/17 07:49:21;;;;;;;11.52;6.05;;;17.20;99.90;;;;;;4991619;28;20479;-66
2021/08/17 07:51:47;;;;;;;10.77;5.70;;;18.50;99.90;;;;;;4990480;28;20743;-61
2021/08/17 07:54:13;;;;;;;11.65;5.72;;;20.20;99.90;;;;;;4990531;28;20928;-64
2021/08/17 07:56:38;;;;;;;10.95;5.88;;;20.60;99.90;;;;;;4991555;28;20394;-66
2021/08/17 07:59:04;;;;;;;11.83;5.60;;;20.40;99.90;;;;;;4980226;28;20392;-64
2021/08/17 08:01:30;;;;;;;12.50;6.10;;;20.30;99.90;;;;;;4971813;28;20388;-64
2021/08/17 08:03:57;;;;;;;11.47;5.50;;;20.80;99.90;;;;;;4971230;28;20819;-63
2021/08/17 08:06:23;;;;;;;10.70;5.60;;;21.40;99.90;;;;;;4971471;28;20398;-65
2021/08/17 08:08:49;;;;;;;12.67;5.90;;;22.80;99.90;;;;;;4971097;28;20459;-61
2021/08/17 08:11:15;;;;;;;10.88;5.60;;;24.70;98.30;;;;;;4971531;28;20388;-67
2021/08/17 08:13:41;;;;;;;10.32;5.00;;;24.00;95.90;;;;;;4971594;28;20396;-67
2021/08/17 08:16:07;;;;;;;11.35;6.07;;;23.50;94.50;;;;;;4970959;28;20919;-66
2021/08/17 08:18:32;;;;;;;11.00;5.00;;;23.30;97.20;;;;;;4971793;28;20400;-67
2021/08/17 08:20:58;;;;;;;11.25;5.00;;;23.10;94.80;;;;;;4970958;28;20747;-67
2021/08/17 08:23:24;;;;;;;10.57;5.10;;;23.40;94.80;;;;;;4971219;28;20475;-67
2021/08/17 08:25:49;;;;;;;10.30;6.20;;;24.30;94.00;;;;;;4970771;28;20777;-62
2021/08/17 08:28:15;;;;;;;11.85;7.15;;;23.00;90.90;;;;;;4970791;28;20471;-67
2021/08/17 08:30:41;;;;;;;12.07;6.03;;;23.10;93.20;;;;;;4971417;28;20773;-65
2021/08/17 08:33:07;;;;;;;11.57;6.17;;;22.30;94.20;;;;;;4969941;28;20411;-65
2021/08/17 08:35:32;;;;;;;10.30;5.37;;;21.70;95.40;;;;;;4971491;28;20428;-65
2021/08/17 08:37:58;;;;;;;12.52;5.80;;;20.90;95.60;;;;;;4985171;28;20394;-66
2021/08/17 08:40:25;;;;;;;10.90;5.43;;;20.60;98.30;;;;;;4990404;28;20390;-66
2021/08/17 08:42:52;;;;;;;11.37;5.30;;;21.00;97.30;;;;;;4989881;28;20406;-59
2021/08/17 08:45:18;;;;;;;10.52;5.57;;;21.90;94.40;;;;;;4990461;28;20965;-65
2021/08/17 08:47:44;;;;;;;11.73;5.10;;;22.40;94.40;;;;;;4990347;28;20485;-67
2021/08/17 08:50:11;;;;;;;10.43;5.15;;;22.90;92.60;;;;;;4989595;28;20574;-65
2021/08/17 08:52:38;;;;;;;10.13;4.55;;;22.60;90.50;;;;;;4978572;28;20466;-63
2021/08/17 08:55:06;;;;;;;9.55;4.90;;;22.20;92.20;;;;;;4972626;28;20764;-65
2021/08/17 08:57:31;;;;;;;10.18;4.97;;;21.90;92.80;;;;;;4973872;28;20853;-68
2021/08/17 08:59:57;;;;;;;10.95;5.28;;;22.70;91.90;;;;;;4972634;28;20507;-67
2021/08/17 09:02:29;;;;;;;10.20;4.90;;;23.00;91.30;;;;;;4974864;28;20408;-67
2021/08/17 09:04:59;;;;;;;10.02;5.10;;;23.40;90.30;;;;;;4974864;28;20487;-67
2021/08/17 09:07:43;;;;;;;10.83;4.70;;;23.10;88.50;;;;;;4972801;28;20380;-65
2021/08/17 09:10:18;;;;;;;10.13;4.43;;;23.20;89.40;;;;;;4982515;28;20467;-66
2021/08/17 09:12:48;;;;;;;9.68;4.75;;;23.10;85.70;;;;;;4975665;28;20409;-68
2021/08/17 09:15:20;;;;;;;9.65;4.63;;;23.20;85.60;;;;;;4974578;28;20636;-67
2021/08/17 09:18:12;;;;;;;9.67;4.73;;;24.00;83.10;;;;;;4982302;28;20450;-66
2021/08/17 09:20:44;;;;;;;9.35;4.13;;;24.00;80.80;;;;;;4986742;28;20421;-65
2021/08/17 09:23:24;;;;;;;9.80;4.97;;;23.50;82.10;;;;;;4981953;28;20914;-65
2021/08/17 09:25:51;;;;;;;10.10;4.90;;;22.80;83.90;;;;;;4978366;28;20433;-65
2021/08/17 09:28:24;;;;;;;10.10;5.07;;;23.10;89.60;;;;;;4980575;28;20394;-64
2021/08/17 09:30:50;;;;;;;9.67;5.00;;;24.50;83.70;;;;;;4977731;28;20392;-68
2021/08/17 09:33:15;;;;;;;10.15;4.97;;;24.20;79.70;;;;;;4979571;28;20453;-65
2021/08/17 09:35:41;;;;;;;10.75;5.03;;;22.70;82.20;;;;;;4989647;28;20441;-65
2021/08/17 09:38:12;;;;;;;9.77;4.82;;;21.80;86.60;;;;;;4972756;28;20950;-65
2021/08/17 09:40:38;;;;;;;12.40;5.20;;;21.30;86.50;;;;;;4970307;28;20430;-65
2021/08/17 09:43:15;;;;;;;12.00;4.93;;;21.40;90.00;;;;;;4969648;28;20522;-65
2021/08/17 09:45:41;;;;;;;10.30;4.93;;;21.70;90.20;;;;;;4984161;28;20421;-66
2021/08/17 09:48:09;;;;;;;10.90;4.80;;;22.50;90.10;;;;;;4987733;28;20406;-66
2021/08/17 09:50:37;;;;;;;10.05;4.53;;;21.70;85.90;;;;;;4989084;28;20434;-67
2021/08/17 09:53:17;;;;;;;9.77;4.20;;;21.30;85.90;;;;;;4988863;28;20477;-67
2021/08/17 09:55:56;;;;;;;10.70;4.63;;;20.60;89.10;;;;;;4989644;28;20394;-67
2021/08/17 09:58:35;;;;;;;10.02;4.00;;;20.50;90.80;;;;;;4985497;28;20443;-67
2021/08/17 10:01:06;;;;;;;9.15;4.68;;;20.60;91.10;;;;;;4969466;28;20398;-67
2021/08/17 10:03:33;;;;;;;11.20;4.80;;;20.20;91.80;;;;;;4969950;28;20423;-66
2021/08/17 10:05:59;;;;;;;10.20;4.40;;;19.80;93.00;;;;;;4969572;28;20936;-67
2021/08/17 10:08:37;;;;;;;9.27;4.30;;;19.90;93.20;;;;;;4969982;28;20470;-67
2021/08/17 10:11:02;;;;;;;12.03;4.77;;;20.10;93.30;;;;;;4969283;28;20439;-67
2021/08/17 10:13:31;;;;;;;10.25;4.80;;;19.90;93.10;;;;;;4970652;28;20392;-66
2021/08/17 10:15:57;;;;;;;10.55;4.78;;;19.80;93.30;;;;;;4973441;28;20891;-61
2021/08/17 10:18:25;;;;;;;9.47;4.40;;;19.50;93.10;;;;;;4973583;28;20401;-65
2021/08/17 10:20:53;;;;;;;10.10;4.68;;;19.40;94.50;;;;;;4973494;28;20392;-66
2021/08/17 10:23:20;;;;;;;9.50;4.30;;;19.20;94.00;;;;;;4972913;28;20412;-67
2021/08/17 10:25:46;;;;;;;11.15;4.55;;;18.90;95.00;;;;;;4973604;28;20432;-67
2021/08/17 10:28:26;;;;;;;8.38;3.80;;;18.90;95.20;;;;;;4972952;28;20430;-67
2021/08/17 10:30:53;;;;;;;9.07;3.80;;;19.10;95.00;;;;;;4973362;28;20500;-66
2021/08/17 10:33:41;;;;;;;9.68;3.90;;;19.20;94.40;;;;;;4972743;28;21238;-66
2021/08/17 10:36:09;;;;;;;9.35;4.03;;;19.40;94.40;;;;;;4972672;28;20443;-66
2021/08/17 10:38:40;;;;;;;9.02;4.10;;;19.80;94.10;;;;;;4992753;28;20494;-67
2021/08/17 10:41:07;;;;;;;9.38;4.03;;;20.30;93.80;;;;;;4991892;28;20470;-67
2021/08/17 10:43:33;;;;;;;11.07;4.28;;;20.60;93.40;;;;;;4992553;28;20496;-67
2021/08/17 10:46:01;;;;;;;9.87;4.50;;;20.50;93.70;;;;;;4992144;28;20870;-62
2021/08/17 10:48:46;;;;;;;8.82;4.07;;;20.60;92.80;;;;;;4992629;28;20874;-67
2021/08/17 10:51:38;;;;;;;9.00;3.80;;;20.90;94.10;;;;;;4991484;28;20761;-67
2021/08/17 10:54:03;;;;;;;9.05;4.22;;;20.90;94.40;;;;;;4992120;28;20411;-67
2021/08/17 10:56:34;;;;;;;8.90;3.83;;;20.30;91.30;;;;;;4992561;28;20477;-67
2021/08/17 10:59:00;;;;;;;9.80;4.78;;;20.60;94.50;;;;;;4982787;28;20385;-62
2021/08/17 11:01:45;;;;;;;10.30;4.80;;;20.70;92.80;;;;;;4972867;28;20392;-66
2021/08/17 11:04:15;;;;;;;9.87;3.77;;;20.30;92.50;;;;;;4972307;28;20491;-66
2021/08/17 11:06:54;;;;;;;9.32;4.25;;;20.10;94.50;;;;;;4972903;28;20569;-64
2021/08/17 11:09:35;;;;;;;8.15;4.25;;;21.00;93.60;;;;;;4971732;28;20450;-65
2021/08/17 11:12:07;;;;;;;9.95;4.50;;;21.60;92.60;;;;;;4971703;28;20396;-59
2021/08/17 11:14:40;;;;;;;8.65;3.80;;;22.20;91.50;;;;;;4954587;28;20467;-64
2021/08/17 11:17:13;;;;;;;9.20;4.15;;;21.50;90.10;;;;;;4971881;28;20534;-64
2021/08/17 11:19:41;;;;;;;9.10;4.50;;;21.20;91.50;;;;;;4972730;28;20459;-63
2021/08/17 11:22:12;;;;;;;10.00;4.13;;;21.40;93.20;;;;;;4971589;28;20412;-64
2021/08/17 11:24:40;;;;;;;9.75;3.92;;;21.60;92.90;;;;;;4955364;28;20397;-64
2021/08/17 11:27:19;;;;;;;9.27;4.20;;;21.90;92.20;;;;;;4970493;28;20415;-64
2021/08/17 11:29:47;;;;;;;9.50;4.13;;;21.70;91.50;;;;;;4972280;28;20427;-64
2021/08/17 11:32:43;;;;;;;8.88;3.90;;;21.60;91.30;;;;;;4971749;28;20483;-65
2021/08/17 11:35:13;;;;;;;7.68;3.33;;;21.80;90.60;;;;;;4971164;28;20423;-65
2021/08/17 11:37:42;;;;;;;9.40;3.70;;;22.20;86.30;;;;;;4984758;28;20481;-64
2021/08/17 11:40:09;;;;;;;10.45;4.00;;;22.00;86.40;;;;;;4990877;28;20430;-64
2021/08/17 11:42:37;;;;;;;7.15;3.53;;;22.00;86.40;;;;;;4991300;28;20552;-65
2021/08/17 11:45:11;;;;;;;7.53;3.25;;;22.00;90.10;;;;;;4990741;28;20425;-59
2021/08/17 11:47:39;;;;;;;7.87;3.60;;;22.40;87.70;;;;;;4991014;28;20394;-65
2021/08/17 11:50:08;;;;;;;8.77;3.40;;;21.90;84.50;;;;;;4990477;28;20394;-64
2021/08/17 11:52:36;;;;;;;8.07;4.00;;;21.70;87.80;;;;;;4991115;28;20414;-64
2021/08/17 11:55:14;;;;;;;8.63;3.38;;;21.80;85.90;;;;;;4990609;28;20549;-59
2021/08/17 11:57:45;;;;;;;8.93;4.00;;;21.70;87.50;;;;;;4991107;28;20762;-65
2021/08/17 12:00:14;;;;;;;10.02;4.00;;;21.70;87.20;;;;;;4971597;28;20396;-64
2021/08/17 12:02:43;;;;;;;8.13;3.40;;;21.80;87.90;;;;;;4971959;28;20416;-65
2021/08/17 12:05:14;;;;;;;10.10;4.33;;;22.00;87.80;;;;;;4970931;28;20388;-65
2021/08/17 12:07:40;;;;;;;8.57;3.90;;;22.20;85.90;;;;;;4971637;28;20392;-65
2021/08/17 12:10:21;;;;;;;7.40;3.30;;;22.10;87.80;;;;;;4971024;28;20471;-64
2021/08/17 12:13:05;;;;;;;7.75;3.20;;;22.60;82.70;;;;;;4971259;28;20474;-64
2021/08/17 12:15:43;;;;;;;8.00;3.60;;;22.40;84.80;;;;;;4971580;28;20392;-63
2021/08/17 12:18:12;;;;;;;9.30;3.80;;;22.20;83.40;;;;;;4970613;28;20408;-65
2021/08/17 12:20:58;;;;;;;8.27;3.70;;;22.10;83.00;;;;;;4971447;28;20432;-65
2021/08/17 12:23:28;;;;;;;8.30;3.30;;;22.00;82.40;;;;;;4970703;28;20883;-63
2021/08/17 12:26:09;;;;;;;8.15;3.60;;;22.20;79.70;;;;;;4970889;28;21157;-65
2021/08/17 12:28:36;;;;;;;7.93;3.00;;;22.30;82.20;;;;;;4971444;28;20380;-65
2021/08/17 12:31:14;;;;;;;7.10;3.20;;;22.60;80.70;;;;;;4971049;28;20396;-62
2021/08/17 12:33:51;;;;;;;7.75;3.80;;;22.50;79.40;;;;;;4971341;28;20420;-65
2021/08/17 12:36:24;;;;;;;8.50;3.92;;;22.30;79.60;;;;;;4971827;28;20513;-65
2021/08/17 12:38:50;;;;;;;9.27;4.60;;;22.30;79.50;;;;;;4989648;28;20485;-64
2021/08/17 12:41:39;;;;;;;9.50;3.43;;;22.50;80.80;;;;;;4989761;28;20477;-65